Time;durP1;ratioP1;P1;durP2;ratioP2;P2;SDS_P1;SDS_P2;PMS_P1;PMS_P2;Temp;Humidity;BMP_temperature;BMP_pressure;BME280_temperature;BME280_humidity;BME280_pressure;Samples;Min_cycle;Max_cycle;Signal;HPM_P1;HPM_P2
2021/04/09 00:01:23;;;;;;;17.13;10.82;;;3.70;67.90;;;;;;4980187;28;20113;-70
2021/04/09 00:03:49;;;;;;;16.30;10.93;;;3.70;67.70;;;;;;4993541;28;20030;-69
2021/04/09 00:06:15;;;;;;;20.33;11.77;;;3.70;68.50;;;;;;4983261;28;20030;-69
2021/04/09 00:08:41;;;;;;;15.85;11.48;;;3.60;68.70;;;;;;4980216;28;20132;-69
2021/04/09 00:11:07;;;;;;;19.55;11.32;;;3.70;68.00;;;;;;4980035;28;20498;-69
2021/04/09 00:13:32;;;;;;;16.67;11.40;;;3.80;67.90;;;;;;4982592;28;20057;-71
2021/04/09 00:15:58;;;;;;;15.48;11.63;;;3.70;68.20;;;;;;4981265;28;20026;-70
2021/04/09 00:18:23;;;;;;;22.80;11.10;;;3.80;67.80;;;;;;4978742;28;20035;-69
2021/04/09 00:20:49;;;;;;;17.05;11.02;;;3.90;67.20;;;;;;4981339;28;20064;-69
2021/04/09 00:23:14;;;;;;;14.73;11.02;;;3.80;68.10;;;;;;4984289;28;20038;-70
2021/04/09 00:25:40;;;;;;;16.77;10.27;;;3.80;67.30;;;;;;4979407;28;20031;-69
2021/04/09 00:28:06;;;;;;;16.25;10.75;;;3.80;67.90;;;;;;4976866;28;20027;-69
2021/04/09 00:30:31;;;;;;;19.23;10.45;;;3.80;67.70;;;;;;4982245;28;20394;-69
2021/04/09 00:32:57;;;;;;;16.90;10.55;;;3.80;67.60;;;;;;4977942;28;20033;-70
2021/04/09 00:35:23;;;;;;;19.65;10.82;;;3.80;67.40;;;;;;4979258;28;20523;-68
2021/04/09 00:37:51;;;;;;;16.30;10.90;;;3.70;67.70;;;;;;4981778;28;20042;-69
2021/04/09 00:40:17;;;;;;;17.75;10.55;;;3.60;67.90;;;;;;4980611;28;20038;-68
2021/04/09 00:42:43;;;;;;;15.90;10.32;;;3.60;67.60;;;;;;4980665;28;20043;-71
2021/04/09 00:45:09;;;;;;;18.27;10.52;;;3.60;66.90;;;;;;4978150;28;20019;-70
2021/04/09 00:47:35;;;;;;;13.60;10.73;;;3.60;67.30;;;;;;4980604;28;20062;-70
2021/04/09 00:50:01;;;;;;;16.13;10.60;;;3.60;67.70;;;;;;4977911;28;20108;-69
2021/04/09 00:52:32;;;;;;;15.65;10.60;;;3.60;67.30;;;;;;4979358;28;20635;-70
2021/04/09 00:54:58;;;;;;;17.00;11.02;;;3.50;67.90;;;;;;4978520;28;20038;-72
2021/04/09 00:57:24;;;;;;;15.13;10.80;;;3.50;68.20;;;;;;4981221;28;20394;-69
2021/04/09 00:59:50;;;;;;;16.27;10.88;;;3.50;67.70;;;;;;4979980;28;20038;-69
2021/04/09 01:02:16;;;;;;;18.20;11.13;;;3.40;68.40;;;;;;4982240;28;20022;-69
2021/04/09 01:04:42;;;;;;;14.23;10.43;;;3.40;67.80;;;;;;4981474;28;20468;-70
2021/04/09 01:07:08;;;;;;;16.58;11.38;;;3.40;68.50;;;;;;4981557;28;20518;-71
2021/04/09 01:09:35;;;;;;;16.80;10.13;;;3.40;68.40;;;;;;4984035;28;20114;-69
2021/04/09 01:12:01;;;;;;;16.25;10.70;;;3.40;68.50;;;;;;4984393;28;20022;-70
2021/04/09 01:14:27;;;;;;;16.83;10.70;;;3.50;68.30;;;;;;4986245;28;20038;-70
2021/04/09 01:17:05;;;;;;;17.92;10.73;;;3.50;68.20;;;;;;4985001;28;20376;-70
2021/04/09 01:19:50;;;;;;;15.10;11.00;;;3.40;68.70;;;;;;4983642;28;20046;-71
2021/04/09 01:22:16;;;;;;;18.45;10.73;;;3.50;68.10;;;;;;4978954;28;20034;-69
2021/04/09 01:24:54;;;;;;;16.50;10.88;;;3.50;68.10;;;;;;4981827;28;20031;-69
2021/04/09 01:27:46;;;;;;;18.98;10.48;;;3.40;68.70;;;;;;4986261;28;20038;-69
2021/04/09 01:30:30;;;;;;;16.13;10.50;;;3.40;68.20;;;;;;4973370;28;20129;-69
2021/04/09 01:32:56;;;;;;;16.85;9.70;;;3.30;68.60;;;;;;4986792;28;20503;-68
2021/04/09 01:35:24;;;;;;;14.40;9.90;;;3.40;68.30;;;;;;4983547;28;20045;-68
2021/04/09 01:37:58;;;;;;;16.60;10.65;;;3.40;68.40;;;;;;4980661;28;20114;-67
2021/04/09 01:40:30;;;;;;;16.83;10.20;;;3.40;68.80;;;;;;4981256;28;20085;-67
2021/04/09 01:43:00;;;;;;;15.40;10.45;;;3.40;68.70;;;;;;4980989;28;20368;-69
2021/04/09 01:45:28;;;;;;;17.70;10.50;;;3.40;68.60;;;;;;4986245;28;20022;-70
2021/04/09 01:47:54;;;;;;;15.43;9.35;;;3.40;68.70;;;;;;4985517;28;20049;-68
2021/04/09 01:50:20;;;;;;;18.20;10.50;;;3.50;67.90;;;;;;4984342;28;20065;-69
2021/04/09 01:52:49;;;;;;;20.45;10.88;;;3.50;68.50;;;;;;4985336;28;20054;-69
2021/04/09 01:55:16;;;;;;;17.80;10.75;;;3.40;68.70;;;;;;4984348;28;20113;-70
2021/04/09 01:57:43;;;;;;;15.55;10.40;;;3.40;68.70;;;;;;4985683;28;20060;-69
2021/04/09 02:00:15;;;;;;;17.02;10.02;;;3.40;69.00;;;;;;4981326;28;20398;-70
2021/04/09 02:02:46;;;;;;;15.15;10.40;;;3.40;68.80;;;;;;4986911;28;20093;-70
2021/04/09 02:05:16;;;;;;;16.13;10.18;;;3.40;68.80;;;;;;4984797;28;20030;-69
2021/04/09 02:07:42;;;;;;;15.20;9.97;;;3.40;69.10;;;;;;4985980;28;20030;-70
2021/04/09 02:10:10;;;;;;;16.42;10.82;;;3.40;68.60;;;;;;4984894;28;20117;-68
2021/04/09 02:12:36;;;;;;;17.83;10.82;;;3.40;68.50;;;;;;4980035;28;20105;-70
2021/04/09 02:15:06;;;;;;;18.33;10.23;;;3.40;68.40;;;;;;4982286;28;20096;-69
2021/04/09 02:17:31;;;;;;;14.80;9.75;;;3.40;68.40;;;;;;4983354;28;20062;-70
2021/04/09 02:19:57;;;;;;;20.80;10.15;;;3.40;68.50;;;;;;4984792;28;20050;-69
2021/04/09 02:22:23;;;;;;;13.20;9.85;;;3.40;68.30;;;;;;4985410;28;20034;-69
2021/04/09 02:24:48;;;;;;;17.70;10.25;;;3.30;69.00;;;;;;4984605;28;20029;-69
2021/04/09 02:27:15;;;;;;;16.80;9.93;;;3.30;68.30;;;;;;4985515;28;20257;-69
2021/04/09 02:29:43;;;;;;;17.70;10.50;;;3.20;69.10;;;;;;4979482;28;20475;-69
2021/04/09 02:32:09;;;;;;;17.63;10.02;;;3.20;68.90;;;;;;4983913;28;20057;-70
2021/04/09 02:34:35;;;;;;;17.33;10.60;;;3.10;69.20;;;;;;4979289;28;20027;-70
2021/04/09 02:37:01;;;;;;;15.52;10.05;;;3.10;69.50;;;;;;4986103;28;20050;-69
2021/04/09 02:39:30;;;;;;;17.67;10.13;;;3.10;69.70;;;;;;4985152;28;20434;-69
2021/04/09 02:42:02;;;;;;;17.10;8.63;;;3.10;69.30;;;;;;4985905;28;20034;-69
2021/04/09 02:44:28;;;;;;;14.52;10.23;;;3.00;69.70;;;;;;4982499;28;20030;-68
2021/04/09 02:47:10;;;;;;;14.20;9.27;;;3.00;69.80;;;;;;4986796;28;20530;-68
2021/04/09 02:49:43;;;;;;;18.60;10.40;;;3.00;69.50;;;;;;4980259;28;20035;-69
2021/04/09 02:52:20;;;;;;;17.63;9.43;;;2.90;70.20;;;;;;4985898;28;20034;-70
2021/04/09 02:54:59;;;;;;;13.32;9.50;;;3.00;69.70;;;;;;4985545;28;20093;-70
2021/04/09 02:57:27;;;;;;;13.35;7.72;;;3.00;69.70;;;;;;4981946;28;20106;-68
2021/04/09 02:59:54;;;;;;;13.10;8.75;;;3.00;69.80;;;;;;4982854;28;20498;-71
2021/04/09 03:02:22;;;;;;;15.27;9.80;;;3.00;69.70;;;;;;4986818;28;20026;-69
2021/04/09 03:04:48;;;;;;;15.55;9.68;;;2.90;70.10;;;;;;4985232;28;20030;-69
2021/04/09 03:07:15;;;;;;;13.88;9.38;;;2.90;70.20;;;;;;4987574;28;20077;-71
2021/04/09 03:09:41;;;;;;;17.95;9.75;;;2.90;70.50;;;;;;4984131;28;20038;-68
2021/04/09 03:12:17;;;;;;;17.00;9.40;;;2.80;70.50;;;;;;4990247;28;20026;-69
2021/04/09 03:14:45;;;;;;;18.77;9.90;;;2.80;70.60;;;;;;4989107;28;20034;-68
2021/04/09 03:17:18;;;;;;;14.02;9.57;;;2.70;71.30;;;;;;4989939;28;20065;-72
2021/04/09 03:19:44;;;;;;;14.02;9.57;;;2.60;71.50;;;;;;4982485;28;20056;-68
2021/04/09 03:22:11;;;;;;;16.30;9.80;;;2.60;71.60;;;;;;4989445;28;20113;-69
2021/04/09 03:24:37;;;;;;;15.43;9.15;;;2.70;71.20;;;;;;4986954;28;20545;-67
2021/04/09 03:27:07;;;;;;;14.07;9.23;;;2.60;71.60;;;;;;4986791;28;20036;-68
2021/04/09 03:29:33;;;;;;;15.57;8.75;;;2.70;71.20;;;;;;4987001;28;20027;-68
2021/04/09 03:31:59;;;;;;;14.05;8.85;;;2.60;71.60;;;;;;4988818;28;20036;-70
2021/04/09 03:34:24;;;;;;;16.63;9.02;;;2.70;71.00;;;;;;4987554;28;20133;-69
2021/04/09 03:36:50;;;;;;;14.27;9.32;;;2.80;70.80;;;;;;4989668;28;20037;-68
2021/04/09 03:39:16;;;;;;;13.23;9.27;;;2.80;71.00;;;;;;4988119;28;20189;-69
2021/04/09 03:41:42;;;;;;;17.55;9.73;;;2.80;71.30;;;;;;4986917;28;20026;-68
2021/04/09 03:44:07;;;;;;;16.08;9.25;;;2.70;71.20;;;;;;4986844;28;20054;-71
2021/04/09 03:46:33;;;;;;;18.95;9.52;;;2.70;71.60;;;;;;4989700;28;20065;-68
2021/04/09 03:48:59;;;;;;;13.80;9.63;;;2.70;71.50;;;;;;4987997;28;20462;-70
2021/04/09 03:51:24;;;;;;;17.55;9.85;;;2.60;71.80;;;;;;4988061;28;20046;-69
2021/04/09 03:53:50;;;;;;;16.33;9.57;;;2.70;71.70;;;;;;4989049;28;20076;-69
2021/04/09 03:56:15;;;;;;;14.98;9.43;;;2.60;72.10;;;;;;4989880;28;20034;-69
2021/04/09 03:58:41;;;;;;;15.80;8.73;;;2.60;72.10;;;;;;4978387;28;20714;-70
2021/04/09 04:01:07;;;;;;;15.75;9.30;;;2.60;71.90;;;;;;4986983;28;20537;-70
2021/04/09 04:03:32;;;;;;;13.07;9.07;;;2.60;72.50;;;;;;4988166;28;20108;-69
2021/04/09 04:05:58;;;;;;;20.25;9.10;;;2.60;72.50;;;;;;4988716;28;20112;-69
2021/04/09 04:08:23;;;;;;;15.73;8.90;;;2.60;72.40;;;;;;4973127;28;20030;-68
2021/04/09 04:10:49;;;;;;;16.48;8.98;;;2.50;72.90;;;;;;4985397;28;20109;-70
2021/04/09 04:13:15;;;;;;;11.77;7.75;;;2.50;72.60;;;;;;4977945;28;20047;-69
2021/04/09 04:15:40;;;;;;;15.38;9.57;;;2.60;72.50;;;;;;4985421;28;20428;-69
2021/04/09 04:18:06;;;;;;;14.48;9.25;;;2.60;72.70;;;;;;4986134;28;20402;-71
2021/04/09 04:20:31;;;;;;;15.13;8.48;;;2.50;73.10;;;;;;4987941;28;20105;-69
2021/04/09 04:22:57;;;;;;;14.38;8.40;;;2.60;72.70;;;;;;4986939;28;20026;-69
2021/04/09 04:25:22;;;;;;;13.32;8.77;;;2.60;73.10;;;;;;4987880;28;20037;-70
2021/04/09 04:27:48;;;;;;;15.80;8.95;;;2.60;72.90;;;;;;4987783;28;20137;-69
2021/04/09 04:30:14;;;;;;;17.60;8.50;;;2.70;72.60;;;;;;4987153;28;20109;-67
2021/04/09 04:32:40;;;;;;;16.35;8.68;;;2.80;72.30;;;;;;4981995;28;20117;-68
2021/04/09 04:35:06;;;;;;;14.18;8.82;;;2.80;72.70;;;;;;4986226;28;20029;-68
2021/04/09 04:37:32;;;;;;;16.40;9.35;;;2.70;73.10;;;;;;4989013;28;20026;-67
2021/04/09 04:39:58;;;;;;;16.25;8.13;;;2.80;72.30;;;;;;4982865;28;20041;-68
2021/04/09 04:42:23;;;;;;;13.55;8.68;;;2.70;72.80;;;;;;4983127;28;20072;-68
2021/04/09 04:44:49;;;;;;;15.63;8.93;;;2.70;73.00;;;;;;4983300;28;20025;-68
2021/04/09 04:47:14;;;;;;;15.68;9.63;;;2.70;73.40;;;;;;4986297;28;20033;-68
2021/04/09 04:49:40;;;;;;;15.98;9.25;;;2.80;72.90;;;;;;4980285;28;20026;-67
2021/04/09 04:52:06;;;;;;;15.55;9.02;;;2.80;73.20;;;;;;4988530;28;20026;-68
2021/04/09 04:54:31;;;;;;;18.10;9.48;;;2.90;72.30;;;;;;4987052;28;20077;-67
2021/04/09 04:56:57;;;;;;;17.35;9.13;;;3.00;72.50;;;;;;4988254;28;20482;-68
2021/04/09 04:59:22;;;;;;;14.15;8.77;;;3.00;72.70;;;;;;4985199;28;20676;-68
2021/04/09 05:01:48;;;;;;;12.88;8.27;;;3.00;72.40;;;;;;4986525;28;20029;-68
2021/04/09 05:04:13;;;;;;;15.13;8.77;;;3.10;72.70;;;;;;4986071;28;20154;-68
2021/04/09 05:06:39;;;;;;;16.25;9.32;;;3.10;72.50;;;;;;4983108;28;20590;-68
2021/04/09 05:09:06;;;;;;;11.07;6.85;;;3.20;72.50;;;;;;4983527;28;20026;-67
2021/04/09 05:11:32;;;;;;;13.45;8.32;;;3.30;72.00;;;;;;4983911;28;20023;-67
2021/04/09 05:13:58;;;;;;;16.30;8.98;;;3.30;72.10;;;;;;4982654;28;20061;-67
2021/04/09 05:16:24;;;;;;;11.10;7.75;;;3.30;72.20;;;;;;4984251;28;20042;-68
2021/04/09 05:18:49;;;;;;;13.40;8.82;;;3.40;71.80;;;;;;4979889;28;20545;-67
2021/04/09 05:21:15;;;;;;;13.65;8.02;;;3.40;71.90;;;;;;4983914;28;20045;-67
2021/04/09 05:23:40;;;;;;;14.15;8.95;;;3.40;72.20;;;;;;4979029;28;20105;-68
2021/04/09 05:26:06;;;;;;;17.10;8.88;;;3.50;71.30;;;;;;4985176;28;20022;-68
2021/04/09 05:28:32;;;;;;;16.45;8.90;;;3.60;71.40;;;;;;4984488;28;20034;-68
2021/04/09 05:30:57;;;;;;;14.88;8.82;;;3.60;71.60;;;;;;4987750;28;20034;-69
2021/04/09 05:33:24;;;;;;;13.40;8.18;;;3.70;71.60;;;;;;4983357;28;20041;-68
2021/04/09 05:35:50;;;;;;;13.13;8.45;;;3.70;71.60;;;;;;4986960;28;20076;-68
2021/04/09 05:38:15;;;;;;;16.27;9.07;;;3.80;70.80;;;;;;4983921;28;20664;-69
2021/04/09 05:40:41;;;;;;;18.40;8.95;;;3.90;71.30;;;;;;4976724;28;20042;-69
2021/04/09 05:43:07;;;;;;;17.27;8.50;;;3.90;70.80;;;;;;4986553;28;20113;-66
2021/04/09 05:45:33;;;;;;;18.88;8.55;;;3.90;70.80;;;;;;4985603;28;20034;-66
2021/04/09 05:48:04;;;;;;;15.38;8.27;;;4.00;70.50;;;;;;4982409;28;20027;-66
2021/04/09 05:50:31;;;;;;;19.10;8.73;;;4.10;70.50;;;;;;4983992;28;20541;-65
2021/04/09 05:52:57;;;;;;;13.77;7.75;;;4.10;70.60;;;;;;4980821;28;20038;-67
2021/04/09 05:55:22;;;;;;;14.02;8.23;;;4.10;70.60;;;;;;4978107;28;20026;-66
2021/04/09 05:57:48;;;;;;;19.35;9.13;;;4.10;69.90;;;;;;4983797;28;20482;-66
2021/04/09 06:00:14;;;;;;;16.27;8.30;;;4.20;69.60;;;;;;4984299;28;20561;-66
2021/04/09 06:02:40;;;;;;;16.90;9.52;;;4.20;69.60;;;;;;4985800;28;20057;-67
2021/04/09 06:05:07;;;;;;;15.40;8.77;;;4.30;69.70;;;;;;4984656;28;20495;-67
2021/04/09 06:07:32;;;;;;;19.73;8.93;;;4.30;69.70;;;;;;4986387;28;20434;-66
2021/04/09 06:09:58;;;;;;;17.17;9.00;;;4.40;69.70;;;;;;4998512;28;20023;-68
2021/04/09 06:12:24;;;;;;;16.13;8.73;;;4.40;69.00;;;;;;4987359;28;20113;-67
2021/04/09 06:14:52;;;;;;;13.35;7.70;;;4.40;69.90;;;;;;4981349;28;20034;-67
2021/04/09 06:17:18;;;;;;;15.98;8.07;;;4.40;70.10;;;;;;4977098;28;20058;-67
2021/04/09 06:19:43;;;;;;;16.00;8.38;;;4.50;70.10;;;;;;4980157;28;20030;-68
2021/04/09 06:22:09;;;;;;;12.68;8.57;;;4.40;70.60;;;;;;4980351;28;20076;-68
2021/04/09 06:24:37;;;;;;;14.18;8.38;;;4.40;70.20;;;;;;4983277;28;20030;-67
2021/04/09 06:27:03;;;;;;;14.25;8.63;;;4.40;70.10;;;;;;4984510;28;20030;-67
2021/04/09 06:29:29;;;;;;;15.70;8.85;;;4.50;70.00;;;;;;4982940;28;20513;-67
2021/04/09 06:31:55;;;;;;;16.67;8.60;;;4.50;70.20;;;;;;4981683;28;20027;-68
2021/04/09 06:34:20;;;;;;;20.30;9.30;;;4.60;69.70;;;;;;4981328;28;20069;-67
2021/04/09 06:36:46;;;;;;;14.18;8.27;;;4.60;70.20;;;;;;4985663;28;20257;-68
2021/04/09 06:39:12;;;;;;;17.00;9.00;;;4.70;69.60;;;;;;4988859;28;20026;-67
2021/04/09 06:41:39;;;;;;;15.13;8.30;;;4.70;69.50;;;;;;4988760;28;20085;-67
2021/04/09 06:44:06;;;;;;;14.00;8.68;;;4.70;69.40;;;;;;4987209;28;20026;-68
2021/04/09 06:46:33;;;;;;;12.80;8.48;;;4.70;69.60;;;;;;4988406;28;20031;-68
2021/04/09 06:48:59;;;;;;;12.90;8.27;;;4.80;69.50;;;;;;4974302;28;20478;-67
2021/04/09 06:51:25;;;;;;;12.05;7.80;;;4.90;69.30;;;;;;4987134;28;20031;-68
2021/04/09 06:53:52;;;;;;;15.88;8.80;;;5.00;69.40;;;;;;4986312;28;20034;-67
2021/04/09 06:56:21;;;;;;;17.35;8.63;;;5.10;69.20;;;;;;4982561;28;20030;-68
2021/04/09 06:58:48;;;;;;;15.63;8.68;;;5.10;69.10;;;;;;4986215;28;20093;-67
2021/04/09 07:01:20;;;;;;;13.88;8.88;;;5.20;68.50;;;;;;4983944;28;20022;-68
2021/04/09 07:03:45;;;;;;;;;;;5.30;68.70;;;;;;4988020;28;20027;-67
2021/04/09 07:06:11;;;;;;;16.60;9.25;;;5.30;68.10;;;;;;4987780;28;20191;-67
2021/04/09 07:08:41;;;;;;;15.02;8.80;;;5.40;68.00;;;;;;4986035;28;20027;-67
2021/04/09 07:11:07;;;;;;;14.30;8.38;;;5.50;68.60;;;;;;4978455;28;20022;-69
2021/04/09 07:13:33;;;;;;;15.27;8.63;;;5.60;69.00;;;;;;4986659;28;20022;-68
2021/04/09 07:16:08;;;;;;;13.25;7.90;;;5.80;68.10;;;;;;4986116;28;20026;-68
2021/04/09 07:19:06;;;;;;;17.35;8.15;;;5.70;67.40;;;;;;4986677;28;20546;-68
2021/04/09 07:21:33;;;;;;;16.70;8.73;;;5.70;67.70;;;;;;4966431;28;20058;-68
2021/04/09 07:24:16;;;;;;;15.73;8.05;;;5.80;68.10;;;;;;4985378;28;20037;-68
2021/04/09 07:26:48;;;;;;;15.45;8.25;;;6.00;67.40;;;;;;4986741;28;20121;-67
2021/04/09 07:29:32;;;;;;;16.13;8.32;;;6.10;67.00;;;;;;4978488;28;20523;-69
2021/04/09 07:32:27;;;;;;;13.32;7.60;;;6.20;66.30;;;;;;4985025;28;20100;-68
2021/04/09 07:35:03;;;;;;;15.27;8.15;;;6.20;66.90;;;;;;4985834;28;20537;-68
2021/04/09 07:37:31;;;;;;;13.43;7.75;;;6.40;67.40;;;;;;4984999;28;20105;-68
2021/04/09 07:40:03;;;;;;;12.77;8.50;;;6.60;67.30;;;;;;4973570;28;20033;-68
2021/04/09 07:42:34;;;;;;;13.50;8.25;;;6.50;66.80;;;;;;4986530;28;20054;-69
2021/04/09 07:45:21;;;;;;;14.65;8.07;;;6.50;66.70;;;;;;4984203;28;20022;-67
2021/04/09 07:48:05;;;;;;;13.32;8.55;;;6.70;67.10;;;;;;4986124;28;20037;-69
2021/04/09 07:50:42;;;;;;;20.05;8.63;;;6.70;66.40;;;;;;4987622;28;20197;-69
2021/04/09 07:53:16;;;;;;;16.92;8.77;;;6.70;65.60;;;;;;4980854;28;20040;-68
2021/04/09 07:55:41;;;;;;;16.83;7.78;;;6.70;66.70;;;;;;4978184;28;20047;-68
2021/04/09 07:58:18;;;;;;;13.88;7.82;;;6.80;66.50;;;;;;4984249;28;20116;-67
2021/04/09 08:00:51;;;;;;;15.52;8.20;;;7.10;66.90;;;;;;4983500;28;20106;-68
2021/04/09 08:03:32;;;;;;;16.33;7.90;;;7.00;66.10;;;;;;4987862;28;20026;-67
2021/04/09 08:06:06;;;;;;;16.20;8.75;;;7.10;65.90;;;;;;4986957;28;20125;-69
2021/04/09 08:08:31;;;;;;;16.35;8.43;;;7.00;66.40;;;;;;4987159;28;20145;-68
2021/04/09 08:11:18;;;;;;;12.50;7.57;;;7.20;65.90;;;;;;4986468;28;20280;-68
2021/04/09 08:13:43;;;;;;;13.25;8.65;;;7.30;66.30;;;;;;4984993;28;20122;-68
2021/04/09 08:16:46;;;;;;;16.63;8.10;;;7.50;66.40;;;;;;4985466;28;20101;-68
2021/04/09 08:19:14;;;;;;;15.23;8.18;;;7.40;66.00;;;;;;4982157;28;20037;-68
2021/04/09 08:21:54;;;;;;;14.75;7.82;;;7.50;65.70;;;;;;4985217;28;20073;-69
2021/04/09 08:24:22;;;;;;;12.75;7.35;;;7.50;66.00;;;;;;4983997;28;20030;-69
2021/04/09 08:26:49;;;;;;;12.88;7.95;;;7.30;66.30;;;;;;4984638;28;20037;-68
2021/04/09 08:29:15;;;;;;;13.00;8.30;;;7.60;66.80;;;;;;4983021;28;20026;-68
2021/04/09 08:31:41;;;;;;;13.52;7.32;;;7.80;65.50;;;;;;4984008;28;20411;-67
2021/04/09 08:34:10;;;;;;;12.35;8.10;;;7.90;66.00;;;;;;4986590;28;20030;-69
2021/04/09 08:36:42;;;;;;;13.75;7.70;;;8.00;64.50;;;;;;4985873;28;20525;-67
2021/04/09 08:39:09;;;;;;;14.65;8.07;;;8.10;63.70;;;;;;4983932;28;20402;-68
2021/04/09 08:41:40;;;;;;;19.10;8.55;;;7.90;65.90;;;;;;4985342;28;20057;-68
2021/04/09 08:44:10;;;;;;;17.13;8.85;;;8.00;65.00;;;;;;4985206;28;20483;-68
2021/04/09 08:46:36;;;;;;;15.38;7.68;;;7.80;65.60;;;;;;4983938;28;20037;-68
2021/04/09 08:49:06;;;;;;;14.13;7.72;;;7.80;65.60;;;;;;4984284;28;20120;-68
2021/04/09 08:51:36;;;;;;;12.05;7.20;;;7.80;65.60;;;;;;4985841;28;20038;-68
2021/04/09 08:54:23;;;;;;;13.65;8.30;;;7.90;65.20;;;;;;4981473;28;20104;-68
2021/04/09 08:56:50;;;;;;;10.20;7.90;;;8.10;65.50;;;;;;4987331;28;20419;-69
2021/04/09 08:59:48;;;;;;;15.90;8.60;;;8.30;65.40;;;;;;4984982;28;20042;-67
2021/04/09 09:02:24;;;;;;;14.00;7.38;;;8.50;64.90;;;;;;4984579;28;20046;-69
2021/04/09 09:05:05;;;;;;;14.48;7.00;;;8.70;64.00;;;;;;4984932;28;20105;-68
2021/04/09 09:07:48;;;;;;;11.02;7.78;;;8.70;63.20;;;;;;4985278;28;20508;-67
2021/04/09 09:10:26;;;;;;;12.88;7.53;;;9.10;64.20;;;;;;4982920;28;20498;-68
2021/04/09 09:13:13;;;;;;;12.82;7.68;;;8.90;64.90;;;;;;4985725;28;20120;-68
2021/04/09 09:15:45;;;;;;;10.32;7.63;;;8.80;65.10;;;;;;4986005;28;20019;-69
2021/04/09 09:18:23;;;;;;;15.20;8.15;;;8.80;64.40;;;;;;4979498;28;20027;-69
2021/04/09 09:21:01;;;;;;;13.63;7.32;;;8.70;64.90;;;;;;4994713;28;20068;-68
2021/04/09 09:23:59;;;;;;;12.43;7.07;;;8.80;64.40;;;;;;4980762;28;20538;-68
2021/04/09 09:26:37;;;;;;;12.73;7.55;;;8.80;64.80;;;;;;4983079;28;20023;-68
2021/04/09 09:29:08;;;;;;;16.05;7.45;;;9.30;64.00;;;;;;4983670;28;20026;-68
2021/04/09 09:31:37;;;;;;;13.98;7.00;;;9.60;64.00;;;;;;4982795;28;20026;-68
2021/04/09 09:34:26;;;;;;;12.75;7.50;;;9.90;62.70;;;;;;4980336;28;20307;-68
2021/04/09 09:37:07;;;;;;;14.77;7.57;;;9.90;62.50;;;;;;4985571;28;20046;-65
2021/04/09 09:39:41;;;;;;;13.02;6.93;;;9.90;62.40;;;;;;4982311;28;20398;-67
2021/04/09 09:42:14;;;;;;;12.80;6.35;;;10.10;63.10;;;;;;4982703;28;20088;-67
2021/04/09 09:44:44;;;;;;;11.32;7.50;;;10.10;60.20;;;;;;4978095;28;20031;-68
2021/04/09 09:47:20;;;;;;;13.37;6.47;;;10.40;60.80;;;;;;4985482;28;20157;-68
2021/04/09 09:50:07;;;;;;;12.63;6.63;;;10.10;60.10;;;;;;4980403;28;20818;-69
2021/04/09 09:53:14;;;;;;;13.30;6.82;;;10.50;60.70;;;;;;4986814;28;20428;-68
2021/04/09 09:55:45;;;;;;;11.43;6.72;;;10.80;61.20;;;;;;4976166;28;20073;-67
2021/04/09 09:58:19;;;;;;;9.45;6.22;;;10.80;60.10;;;;;;4983680;28;20031;-66
2021/04/09 10:01:04;;;;;;;11.35;6.45;;;10.30;60.30;;;;;;4983965;28;20030;-67
2021/04/09 10:03:33;;;;;;;11.40;6.20;;;10.30;60.40;;;;;;4981414;28;20023;-67
2021/04/09 10:06:04;;;;;;;8.98;5.50;;;10.30;60.50;;;;;;4983662;28;20141;-68
2021/04/09 10:08:35;;;;;;;9.85;5.95;;;10.20;58.90;;;;;;4977507;28;20027;-67
2021/04/09 10:11:02;;;;;;;11.25;6.47;;;10.50;59.60;;;;;;4975259;28;20035;-67
2021/04/09 10:13:28;;;;;;;13.38;6.78;;;10.90;60.70;;;;;;4980266;28;20410;-67
2021/04/09 10:16:05;;;;;;;12.50;6.10;;;11.10;58.80;;;;;;4988074;28;20041;-67
2021/04/09 10:18:31;;;;;;;11.35;6.00;;;11.20;59.50;;;;;;4983435;28;20065;-67
2021/04/09 10:21:17;;;;;;;9.13;5.35;;;11.50;59.30;;;;;;4986135;28;20518;-68
2021/04/09 10:23:44;;;;;;;10.30;5.95;;;11.10;57.30;;;;;;4999122;28;20049;-67
2021/04/09 10:26:11;;;;;;;11.93;5.60;;;11.30;57.40;;;;;;4987517;28;20101;-67
2021/04/09 10:28:38;;;;;;;10.02;6.20;;;11.10;57.00;;;;;;4984650;28;20465;-67
2021/04/09 10:31:32;;;;;;;11.80;6.00;;;11.10;57.20;;;;;;4984830;28;20105;-68
2021/04/09 10:33:59;;;;;;;10.07;5.70;;;11.30;58.00;;;;;;4981415;28;20046;-68
2021/04/09 10:36:30;;;;;;;11.90;5.43;;;11.60;56.90;;;;;;4986362;28;20731;-68
2021/04/09 10:39:11;;;;;;;9.77;5.68;;;11.70;56.70;;;;;;4990109;28;20487;-68
2021/04/09 10:41:38;;;;;;;10.63;6.07;;;10.60;57.30;;;;;;4985304;28;20049;-67
2021/04/09 10:44:15;;;;;;;8.95;5.93;;;10.60;58.20;;;;;;4985795;28;20490;-67
2021/04/09 10:46:42;;;;;;;8.98;5.72;;;10.30;58.60;;;;;;4985259;28;20034;-67
2021/04/09 10:49:16;;;;;;;11.95;6.70;;;10.60;58.30;;;;;;4984538;28;20475;-67
2021/04/09 10:51:47;;;;;;;11.82;6.25;;;10.60;58.00;;;;;;4987209;28;20397;-68
2021/04/09 10:54:34;;;;;;;7.35;5.60;;;10.70;57.60;;;;;;4986903;28;20061;-68
2021/04/09 10:57:06;;;;;;;10.75;5.80;;;10.80;59.10;;;;;;4987279;28;20038;-68
2021/04/09 10:59:34;;;;;;;10.70;6.15;;;10.80;58.60;;;;;;4988494;28;20081;-68
2021/04/09 11:02:01;;;;;;;10.73;6.50;;;11.00;58.00;;;;;;4987375;28;20041;-68
2021/04/09 11:04:29;;;;;;;12.80;6.32;;;11.10;57.70;;;;;;4988728;28;20027;-69
2021/04/09 11:07:00;;;;;;;10.40;5.88;;;11.50;56.90;;;;;;4983811;28;20162;-66
2021/04/09 11:09:47;;;;;;;9.55;5.75;;;12.00;56.60;;;;;;4995076;28;20522;-69
2021/04/09 11:12:27;;;;;;;9.95;6.10;;;11.90;55.90;;;;;;4975931;28;20488;-69
2021/04/09 11:15:10;;;;;;;11.00;5.90;;;12.30;55.30;;;;;;4970306;28;20030;-68
2021/04/09 11:17:37;;;;;;;10.20;6.13;;;11.70;54.30;;;;;;4974315;28;20498;-68
2021/04/09 11:20:23;;;;;;;10.77;6.28;;;11.50;55.30;;;;;;4971666;28;20293;-68
2021/04/09 11:23:09;;;;;;;8.13;5.43;;;12.40;55.80;;;;;;4971720;28;20050;-67
2021/04/09 11:25:40;;;;;;;9.38;5.55;;;12.10;54.50;;;;;;4971293;28;20104;-67
2021/04/09 11:28:08;;;;;;;;;;;11.70;55.40;;;;;;4969010;28;21657;-68
2021/04/09 11:30:36;;;;;;;9.25;4.90;;;11.80;56.40;;;;;;4969624;28;20472;-67
2021/04/09 11:33:02;;;;;;;8.00;5.32;;;11.20;55.70;;;;;;4971260;28;20075;-68
2021/04/09 11:35:35;;;;;;;9.02;5.80;;;11.20;57.10;;;;;;4971837;28;20526;-68
2021/04/09 11:38:06;;;;;;;12.73;6.30;;;11.00;56.90;;;;;;4971559;28;21987;-67
2021/04/09 11:40:44;;;;;;;11.63;6.97;;;11.00;57.40;;;;;;4971047;28;20438;-68
2021/04/09 11:43:12;;;;;;;8.95;5.45;;;10.90;59.30;;;;;;4971030;28;20038;-68
2021/04/09 11:45:42;;;;;;;10.95;5.70;;;10.80;58.30;;;;;;4969604;28;20510;-68
2021/04/09 11:48:26;;;;;;;12.98;5.63;;;10.50;58.60;;;;;;4969009;28;21778;-68
2021/04/09 11:50:54;;;;;;;9.90;5.78;;;10.60;59.20;;;;;;4969701;28;20034;-68
2021/04/09 11:53:20;;;;;;;9.73;5.93;;;10.60;59.00;;;;;;4969168;28;20490;-67
2021/04/09 11:55:48;;;;;;;9.90;6.00;;;10.80;59.20;;;;;;4970998;28;20041;-67
2021/04/09 11:58:43;;;;;;;10.10;5.63;;;10.70;59.30;;;;;;4970261;28;20041;-68
2021/04/09 12:01:08;;;;;;;10.48;6.05;;;10.80;58.10;;;;;;4970098;28;20049;-67
2021/04/09 12:03:45;;;;;;;8.77;6.05;;;10.70;59.30;;;;;;4952145;28;20022;-68
2021/04/09 12:06:12;;;;;;;8.88;5.65;;;10.50;59.30;;;;;;4966727;28;20161;-67
2021/04/09 12:08:39;;;;;;;10.48;6.20;;;10.30;59.70;;;;;;4967570;28;20058;-67
2021/04/09 12:11:07;;;;;;;11.45;5.35;;;10.20;60.10;;;;;;4966514;28;20117;-66
2021/04/09 12:13:34;;;;;;;11.27;5.85;;;10.00;60.10;;;;;;4983726;28;20038;-68
2021/04/09 12:15:59;;;;;;;10.02;6.07;;;10.00;61.10;;;;;;4967487;28;20514;-67
2021/04/09 12:18:25;;;;;;;10.40;5.78;;;10.10;60.90;;;;;;4971699;28;20039;-67
2021/04/09 12:20:51;;;;;;;9.00;5.55;;;10.30;59.90;;;;;;4965641;28;20546;-67
2021/04/09 12:23:16;;;;;;;9.38;5.45;;;10.80;58.20;;;;;;4967705;28;20038;-67
2021/04/09 12:25:42;;;;;;;7.57;5.50;;;11.40;58.60;;;;;;4967749;28;20054;-67
2021/04/09 12:28:07;;;;;;;9.23;5.93;;;11.30;57.70;;;;;;4967882;28;20034;-68
2021/04/09 12:30:33;;;;;;;7.88;5.03;;;10.80;57.60;;;;;;4969503;28;20629;-66
2021/04/09 12:32:59;;;;;;;8.60;5.18;;;10.60;57.70;;;;;;4968807;28;20486;-68
2021/04/09 12:35:25;;;;;;;10.63;5.20;;;10.30;58.70;;;;;;4968393;28;22259;-68
2021/04/09 12:37:51;;;;;;;9.75;5.10;;;10.30;59.70;;;;;;4965373;28;20038;-66
2021/04/09 12:40:17;;;;;;;8.20;4.43;;;10.10;59.90;;;;;;4967240;28;20590;-67
2021/04/09 12:42:42;;;;;;;9.50;6.03;;;10.00;60.00;;;;;;4967592;28;20118;-66
2021/04/09 12:45:09;;;;;;;9.23;6.00;;;10.00;60.70;;;;;;4967303;28;20033;-67
2021/04/09 12:47:34;;;;;;;9.35;5.70;;;10.00;60.70;;;;;;4964922;28;20085;-66
2021/04/09 12:50:00;;;;;;;9.68;5.75;;;9.90;60.90;;;;;;4968096;28;20034;-68
2021/04/09 12:52:25;;;;;;;10.75;5.80;;;9.90;61.00;;;;;;4968234;28;20468;-68
2021/04/09 12:54:51;;;;;;;9.15;5.75;;;9.90;61.10;;;;;;4970192;28;20034;-68
2021/04/09 12:57:17;;;;;;;8.65;5.28;;;10.00;61.60;;;;;;4967262;28;20046;-68